createdAt,value
2022-10-20T00:01:19.331Z,5.43
2022-10-20T00:03:46.862Z,6.93
2022-10-20T00:06:22.626Z,2.97
2022-10-20T00:08:49.908Z,4.95
2022-10-20T00:11:19.475Z,4.40
2022-10-20T00:13:49.219Z,4.75
2022-10-20T00:16:16.511Z,5.18
2022-10-20T00:18:43.458Z,3.80
2022-10-20T00:21:17.574Z,3.58
2022-10-20T00:23:44.592Z,6.05
2022-10-20T00:26:13.047Z,6.40
2022-10-20T00:28:39.954Z,4.00
2022-10-20T00:31:07.398Z,5.47
2022-10-20T00:33:34.732Z,6.72
2022-10-20T00:36:02.891Z,5.45
2022-10-20T00:38:29.922Z,4.10
2022-10-20T00:40:57.264Z,4.28
2022-10-20T00:43:40.311Z,3.60
2022-10-20T00:46:07.199Z,5.93
2022-10-20T00:48:34.842Z,3.85
2022-10-20T00:51:02.035Z,5.30
2022-10-20T00:53:29.578Z,4.72
2022-10-20T00:55:58.367Z,3.50
2022-10-20T00:58:26.466Z,5.20
2022-10-20T01:00:57.563Z,5.25
2022-10-20T01:03:29.560Z,4.72
2022-10-20T01:05:56.443Z,4.50
2022-10-20T01:08:23.291Z,3.45
2022-10-20T01:11:12.847Z,3.20
2022-10-20T01:13:46.815Z,4.30
2022-10-20T01:16:24.448Z,6.88
2022-10-20T01:19:01.992Z,3.08
2022-10-20T01:21:47.736Z,6.72
2022-10-20T01:24:17.645Z,6.10
2022-10-20T01:27:16.653Z,4.68
2022-10-20T01:29:49.493Z,4.03
2022-10-20T01:32:34.843Z,2.97
2022-10-20T01:35:10.474Z,5.00
2022-10-20T01:37:53.368Z,2.92
2022-10-20T01:40:31.959Z,3.00
2022-10-20T01:43:03.902Z,4.47
2022-10-20T01:45:33.746Z,3.92
2022-10-20T01:48:05.191Z,6.70
2022-10-20T01:50:35.354Z,3.42
2022-10-20T01:53:02.672Z,6.18
2022-10-20T01:55:29.569Z,5.88
2022-10-20T01:58:11.423Z,4.95
2022-10-20T02:00:39.621Z,3.90
2022-10-20T02:03:14.818Z,2.53
2022-10-20T02:05:44.400Z,3.03
2022-10-20T02:08:23.121Z,3.60
2022-10-20T02:10:52.887Z,5.10
2022-10-20T02:13:21.288Z,3.38
2022-10-20T02:15:53.948Z,4.07
2022-10-20T02:18:35.320Z,2.40
2022-10-20T02:21:04.591Z,4.35
2022-10-20T02:23:37.305Z,5.63
2022-10-20T02:26:07.289Z,11.27
2022-10-20T02:28:38.864Z,2.13
2022-10-20T02:31:05.942Z,3.45
2022-10-20T02:33:34.761Z,3.85
2022-10-20T02:36:06.032Z,4.30
2022-10-20T02:38:33.090Z,3.10
2022-10-20T02:40:59.862Z,2.72
2022-10-20T02:43:26.647Z,3.65
2022-10-20T02:45:53.411Z,4.45
2022-10-20T02:48:20.165Z,2.63
2022-10-20T02:50:46.923Z,4.03
2022-10-20T02:53:13.684Z,2.35
2022-10-20T02:55:42.577Z,3.38
2022-10-20T02:58:09.786Z,4.88
2022-10-20T03:00:36.558Z,4.47
2022-10-20T03:03:03.404Z,3.22
2022-10-20T03:05:30.206Z,2.88
2022-10-20T03:07:57.060Z,2.55
2022-10-20T03:10:23.798Z,5.38
2022-10-20T03:12:50.548Z,3.25
2022-10-20T03:15:17.504Z,6.40
2022-10-20T03:17:44.238Z,4.40
2022-10-20T03:20:11.332Z,3.03
2022-10-20T03:22:38.075Z,2.55
2022-10-20T03:25:05.270Z,2.70
2022-10-20T03:27:32.025Z,4.18
2022-10-20T03:29:58.766Z,9.27
2022-10-20T03:32:25.690Z,4.22
2022-10-20T03:34:52.410Z,3.72
2022-10-20T03:37:19.154Z,3.42
2022-10-20T03:39:45.982Z,4.57
2022-10-20T03:42:12.736Z,4.68
2022-10-20T03:44:39.955Z,3.53
2022-10-20T03:47:06.902Z,3.70
2022-10-20T03:49:33.977Z,6.10
2022-10-20T03:52:00.790Z,4.75
2022-10-20T03:54:27.593Z,3.33
2022-10-20T03:56:54.393Z,3.70
2022-10-20T03:59:22.787Z,5.80
2022-10-20T04:01:51.254Z,4.63
2022-10-20T04:04:18.044Z,7.25
2022-10-20T04:06:44.779Z,4.38
2022-10-20T04:09:11.643Z,3.72
2022-10-20T04:11:38.681Z,8.18
2022-10-20T04:14:05.425Z,4.57
2022-10-20T04:16:32.296Z,6.28
2022-10-20T04:18:59.044Z,5.50
2022-10-20T04:21:26.418Z,4.18
2022-10-20T04:23:53.233Z,7.40
2022-10-20T04:26:20.016Z,4.80
2022-10-20T04:28:46.785Z,7.88
2022-10-20T04:31:13.496Z,9.48
2022-10-20T04:33:40.310Z,9.48
2022-10-20T04:36:11.703Z,5.80
2022-10-20T04:38:38.415Z,6.78
2022-10-20T04:41:05.777Z,4.63
2022-10-20T04:43:33.627Z,9.20
2022-10-20T04:46:08.665Z,5.55
2022-10-20T04:48:36.299Z,4.60
2022-10-20T04:51:11.960Z,4.82
2022-10-20T04:53:39.361Z,4.57
2022-10-20T04:56:08.122Z,4.85
2022-10-20T04:58:35.737Z,8.50
2022-10-20T05:01:08.189Z,7.18
2022-10-20T05:03:36.277Z,5.22
2022-10-20T05:06:12.549Z,6.10
2022-10-20T05:08:40.699Z,6.32
2022-10-20T05:11:07.937Z,4.70
2022-10-20T05:13:34.877Z,4.65
2022-10-20T05:16:02.269Z,6.32
2022-10-20T05:18:29.436Z,5.43
2022-10-20T05:21:08.265Z,5.03
2022-10-20T05:23:35.775Z,4.13
2022-10-20T05:26:04.632Z,7.18
2022-10-20T05:28:31.402Z,5.80
2022-10-20T05:31:02.944Z,16.13
2022-10-20T05:33:29.661Z,5.88
2022-10-20T05:35:56.756Z,7.25
2022-10-20T05:38:23.593Z,8.02
2022-10-20T05:40:50.443Z,3.95
2022-10-20T05:43:17.445Z,6.43
2022-10-20T05:45:44.271Z,7.50
2022-10-20T05:48:11.221Z,6.22
2022-10-20T05:50:38.676Z,5.15
2022-10-20T05:53:05.480Z,7.63
2022-10-20T05:55:32.989Z,14.45
2022-10-20T05:57:59.711Z,7.20
2022-10-20T06:00:31.091Z,6.30
2022-10-20T06:02:58.003Z,7.07
2022-10-20T06:05:24.818Z,7.35
2022-10-20T06:07:54.432Z,5.40
2022-10-20T06:10:21.224Z,5.05
2022-10-20T06:12:47.949Z,4.13
2022-10-20T06:15:14.698Z,5.32
2022-10-20T06:17:41.633Z,5.15
2022-10-20T06:20:08.827Z,4.18
2022-10-20T06:22:36.281Z,6.43
2022-10-20T06:25:03.270Z,9.45
2022-10-20T06:27:30.080Z,7.60
2022-10-20T06:29:56.801Z,6.57
2022-10-20T06:32:23.603Z,6.10
2022-10-20T06:34:50.362Z,6.40
2022-10-20T06:37:17.120Z,7.35
2022-10-20T06:39:43.851Z,5.35
2022-10-20T06:42:12.085Z,7.43
2022-10-20T06:44:45.101Z,7.07
2022-10-20T06:47:11.864Z,7.45
2022-10-20T06:49:38.748Z,5.70
2022-10-20T06:52:05.606Z,6.40
2022-10-20T06:54:32.431Z,4.82
2022-10-20T06:56:59.172Z,6.43
2022-10-20T06:59:25.919Z,6.10
2022-10-20T07:01:53.045Z,7.07
2022-10-20T07:04:19.839Z,4.45
2022-10-20T07:06:48.300Z,6.63
2022-10-20T07:09:18.722Z,5.93
2022-10-20T07:11:45.744Z,6.05
2022-10-20T07:14:13.921Z,6.82
2022-10-20T07:16:41.129Z,4.47
2022-10-20T07:19:07.931Z,5.20
2022-10-20T07:21:38.349Z,5.85
2022-10-20T07:24:07.652Z,7.85
2022-10-20T07:26:38.043Z,3.88
2022-10-20T07:29:05.361Z,4.30
2022-10-20T07:31:43.482Z,5.53
2022-10-20T07:34:28.025Z,6.15
2022-10-20T07:36:56.431Z,5.03
2022-10-20T07:39:23.637Z,4.97
2022-10-20T07:41:50.984Z,7.65
2022-10-20T07:44:17.773Z,4.80
2022-10-20T07:47:39.602Z,9.43
2022-10-20T07:50:08.070Z,4.40
2022-10-20T07:52:35.104Z,5.55
2022-10-20T07:55:17.364Z,4.85
2022-10-20T07:57:48.694Z,4.88
2022-10-20T08:00:15.780Z,5.57
2022-10-20T08:02:42.575Z,5.78
2022-10-20T08:05:09.488Z,2.88
2022-10-20T08:07:36.238Z,6.47
2022-10-20T08:10:03.654Z,4.03
2022-10-20T08:12:30.338Z,3.78
2022-10-20T08:15:11.924Z,6.40
2022-10-20T08:17:38.696Z,4.22
2022-10-20T08:20:16.796Z,6.78
2022-10-20T08:22:43.509Z,5.15
2022-10-20T08:25:14.793Z,5.15
2022-10-20T08:27:42.078Z,5.50
2022-10-20T08:30:23.549Z,5.68
2022-10-20T08:32:54.561Z,4.55
2022-10-20T08:35:22.555Z,6.50
2022-10-20T08:37:50.078Z,4.35
2022-10-20T08:40:24.090Z,4.40
2022-10-20T08:42:51.424Z,2.75
2022-10-20T08:45:24.183Z,3.90
2022-10-20T08:47:53.897Z,2.90
2022-10-20T08:50:22.155Z,4.00
2022-10-20T08:52:56.238Z,4.45
2022-10-20T08:55:33.616Z,6.53
2022-10-20T08:58:24.255Z,3.78
2022-10-20T09:00:58.249Z,9.50
2022-10-20T09:03:30.550Z,6.10
2022-10-20T09:06:06.349Z,4.70
2022-10-20T09:08:37.300Z,4.72
2022-10-20T09:11:07.300Z,5.38
2022-10-20T09:13:34.765Z,4.13
2022-10-20T09:16:41.016Z,3.90
2022-10-20T09:19:21.060Z,5.57
2022-10-20T09:21:52.711Z,5.05
2022-10-20T09:24:22.217Z,3.85
2022-10-20T09:26:59.945Z,4.25
2022-10-20T09:29:40.301Z,4.22
2022-10-20T09:32:50.907Z,4.38
2022-10-20T09:35:47.035Z,5.15
2022-10-20T09:38:18.583Z,4.80
2022-10-20T09:40:57.549Z,5.88
2022-10-20T09:43:25.852Z,3.22
2022-10-20T09:45:57.912Z,3.10
2022-10-20T09:48:28.932Z,5.75
2022-10-20T09:50:56.950Z,4.03
2022-10-20T09:53:31.834Z,5.00
2022-10-20T09:55:58.992Z,3.38
2022-10-20T09:58:34.288Z,4.00
2022-10-20T10:01:16.385Z,4.78
2022-10-20T10:03:49.171Z,21.98
2022-10-20T10:06:30.952Z,4.55
2022-10-20T10:09:00.729Z,3.22
2022-10-20T10:11:34.793Z,4.68
2022-10-20T10:14:02.465Z,5.13
2022-10-20T10:16:41.618Z,7.53
2022-10-20T10:21:54.457Z,2.75
2022-10-20T10:24:41.989Z,4.45
2022-10-20T10:27:30.409Z,7.93
2022-10-20T10:30:17.235Z,6.13
2022-10-20T10:32:45.294Z,4.72
2022-10-20T10:35:14.951Z,6.95
2022-10-20T10:37:44.597Z,3.75
2022-10-20T10:40:50.508Z,5.70
2022-10-20T10:43:31.723Z,6.00
2022-10-20T10:46:05.823Z,5.00
2022-10-20T10:48:57.667Z,4.25
2022-10-20T10:52:07.747Z,5.32
2022-10-20T10:54:50.111Z,7.15
2022-10-20T10:57:36.493Z,4.90
2022-10-20T11:00:12.945Z,3.75
2022-10-20T11:03:01.422Z,3.28
2022-10-20T11:05:46.655Z,4.85
2022-10-20T11:08:13.353Z,3.15
2022-10-20T11:11:09.772Z,4.45
2022-10-20T11:13:49.349Z,4.75
2022-10-20T11:16:40.225Z,3.78
2022-10-20T11:19:09.993Z,3.17
2022-10-20T11:22:24.517Z,5.50
2022-10-20T11:25:24.182Z,3.15
2022-10-20T11:27:51.491Z,6.00
2022-10-20T11:30:21.276Z,5.20
2022-10-20T11:32:52.944Z,3.15
2022-10-20T11:35:36.838Z,3.30
2022-10-20T11:38:16.980Z,7.10
2022-10-20T11:40:52.706Z,5.03
2022-10-20T11:43:34.308Z,5.13
2022-10-20T11:46:07.007Z,5.35
2022-10-20T11:48:56.112Z,3.90
2022-10-20T11:51:30.952Z,5.30
2022-10-20T11:54:24.776Z,4.05
2022-10-20T11:57:23.779Z,5.88
2022-10-20T12:00:08.718Z,4.30
2022-10-20T12:03:15.638Z,5.55
2022-10-20T12:06:09.197Z,4.60
2022-10-20T12:08:55.844Z,5.10
2022-10-20T12:11:38.193Z,5.43
2022-10-20T12:14:23.947Z,6.85
2022-10-20T12:16:54.005Z,4.83
2022-10-20T12:19:23.343Z,6.38
2022-10-20T12:21:59.814Z,4.55
2022-10-20T12:24:35.655Z,5.47
2022-10-20T12:27:08.512Z,7.13
2022-10-20T12:29:35.169Z,5.78
2022-10-20T12:32:39.901Z,6.70
2022-10-20T12:35:09.985Z,6.78
2022-10-20T12:37:40.233Z,3.88
2022-10-20T12:40:09.187Z,9.45
2022-10-20T12:42:37.836Z,5.68
2022-10-20T12:45:22.223Z,5.15
2022-10-20T12:47:54.919Z,5.32
2022-10-20T12:50:40.091Z,6.10
2022-10-20T12:53:28.861Z,6.28
2022-10-20T12:56:07.655Z,5.00
2022-10-20T12:59:07.943Z,7.03
2022-10-20T13:02:10.011Z,5.72
2022-10-20T13:05:07.691Z,6.80
2022-10-20T13:07:49.415Z,9.18
2022-10-20T13:10:29.244Z,4.97
2022-10-20T13:13:01.943Z,10.23
2022-10-20T13:15:45.252Z,5.68
2022-10-20T13:18:12.219Z,7.93
2022-10-20T13:20:49.051Z,6.20
2022-10-20T13:23:18.639Z,5.90
2022-10-20T13:25:48.939Z,4.78
2022-10-20T13:28:18.814Z,6.45
2022-10-20T13:31:11.051Z,6.32
2022-10-20T13:34:04.303Z,6.88
2022-10-20T13:36:51.672Z,5.50
2022-10-20T13:39:30.357Z,6.93
2022-10-20T13:42:09.360Z,6.80
2022-10-20T13:44:51.216Z,6.05
2022-10-20T13:47:50.923Z,6.10
2022-10-20T13:50:40.555Z,7.05
2022-10-20T13:53:26.334Z,7.40
2022-10-20T13:56:01.870Z,10.48
2022-10-20T13:58:28.610Z,7.55
2022-10-20T14:01:04.341Z,5.00
2022-10-20T14:03:36.345Z,5.88
2022-10-20T14:06:03.026Z,7.50
2022-10-20T14:08:29.836Z,5.32
2022-10-20T14:10:56.647Z,9.57
2022-10-20T14:13:27.133Z,6.38
2022-10-20T14:15:56.148Z,5.03
2022-10-20T14:18:27.331Z,6.88
2022-10-20T14:21:14.831Z,4.40
2022-10-20T14:23:43.124Z,4.72
2022-10-20T14:26:20.132Z,4.28
2022-10-20T14:28:49.676Z,5.00
2022-10-20T14:31:20.289Z,4.63
2022-10-20T14:33:49.958Z,8.18
2022-10-20T14:39:00.733Z,6.15
2022-10-20T14:41:33.141Z,5.95
2022-10-20T14:44:07.069Z,4.63
2022-10-20T14:46:40.226Z,3.85
2022-10-20T14:49:22.394Z,4.65
2022-10-20T14:51:59.836Z,5.80
2022-10-20T14:54:30.970Z,4.05
2022-10-20T14:57:00.522Z,5.28
2022-10-20T14:59:33.279Z,10.25
2022-10-20T15:02:12.824Z,4.28
2022-10-20T15:04:41.708Z,11.27
2022-10-20T15:07:32.585Z,8.07
2022-10-20T15:10:08.841Z,4.93
2022-10-20T15:12:48.889Z,4.68
2022-10-20T15:15:28.949Z,7.32
2022-10-20T15:18:04.492Z,4.78
2022-10-20T15:20:34.205Z,6.80
2022-10-20T15:23:11.495Z,4.55
2022-10-20T15:25:59.089Z,5.75
2022-10-20T15:28:34.490Z,6.47
2022-10-20T15:31:03.248Z,5.50
2022-10-20T15:33:29.989Z,8.40
2022-10-20T15:35:56.940Z,5.43
2022-10-20T15:38:23.658Z,6.35
2022-10-20T15:40:50.373Z,5.15
2022-10-20T15:43:18.637Z,5.15
2022-10-20T15:45:52.064Z,5.72
2022-10-20T15:48:19.141Z,5.20
2022-10-20T15:50:46.656Z,6.68
2022-10-20T15:53:13.351Z,5.78
2022-10-20T15:55:42.700Z,4.90
2022-10-20T15:58:09.531Z,7.82
2022-10-20T16:00:36.744Z,4.85
2022-10-20T16:03:04.339Z,5.72
2022-10-20T16:05:31.114Z,7.80
2022-10-20T16:07:57.807Z,5.93
2022-10-20T16:10:28.474Z,6.47
2022-10-20T16:12:55.536Z,4.35
2022-10-20T16:15:22.294Z,8.73
2022-10-20T16:20:20.747Z,5.00
2022-10-20T16:22:47.658Z,5.10
2022-10-20T16:25:14.494Z,5.80
2022-10-20T16:27:41.541Z,5.75
2022-10-20T16:30:09.090Z,8.38
2022-10-20T16:32:37.032Z,5.90
2022-10-20T16:35:05.636Z,5.13
2022-10-20T16:37:33.419Z,5.88
2022-10-20T16:40:00.831Z,8.82
2022-10-20T16:42:30.192Z,11.45
2022-10-20T16:44:57.337Z,7.63
2022-10-20T16:47:26.084Z,6.90
2022-10-20T16:49:53.281Z,7.13
2022-10-20T16:52:20.048Z,7.93
2022-10-20T16:54:46.759Z,6.65
2022-10-20T16:57:14.002Z,6.78
2022-10-20T16:59:42.473Z,5.70
2022-10-20T17:02:12.066Z,8.38
2022-10-20T17:04:38.822Z,7.25
2022-10-20T17:07:05.718Z,10.13
2022-10-20T17:09:32.451Z,8.25
2022-10-20T17:11:59.168Z,6.53
2022-10-20T17:14:26.117Z,6.30
2022-10-20T17:16:52.804Z,5.13
2022-10-20T17:19:19.522Z,6.85
2022-10-20T17:21:46.470Z,9.48
2022-10-20T17:24:13.745Z,5.47
2022-10-20T17:26:41.530Z,6.80
2022-10-20T17:29:09.484Z,6.15
2022-10-20T17:31:37.756Z,5.93
2022-10-20T17:34:05.213Z,5.35
2022-10-20T17:36:32.906Z,6.43
2022-10-20T17:39:06.263Z,7.07
2022-10-20T17:41:33.558Z,6.53
2022-10-20T17:44:01.646Z,7.90
2022-10-20T17:46:28.616Z,5.78
2022-10-20T17:48:55.399Z,7.30
2022-10-20T17:51:28.937Z,9.07
2022-10-20T17:53:58.709Z,7.90
2022-10-20T17:56:31.214Z,8.30
2022-10-20T17:59:02.831Z,6.18
2022-10-20T18:01:39.119Z,6.40
2022-10-20T18:04:09.204Z,6.93
2022-10-20T18:06:36.389Z,5.63
2022-10-20T18:09:10.606Z,6.10
2022-10-20T18:11:39.530Z,9.40
2022-10-20T18:14:06.728Z,7.68
2022-10-20T18:16:35.609Z,8.00
2022-10-20T18:19:02.576Z,7.93
2022-10-20T18:21:30.997Z,7.68
2022-10-20T18:24:03.419Z,4.80
2022-10-20T18:26:32.212Z,6.70
2022-10-20T18:29:00.158Z,6.47
2022-10-20T18:31:30.295Z,6.70
2022-10-20T18:34:04.039Z,6.38
2022-10-20T18:36:31.444Z,7.57
2022-10-20T18:38:59.398Z,6.55
2022-10-20T18:41:28.676Z,8.05
2022-10-20T18:44:00.779Z,8.07
2022-10-20T18:46:29.837Z,5.50
2022-10-20T18:48:57.499Z,5.47
2022-10-20T18:51:24.631Z,6.25
2022-10-20T18:53:55.111Z,8.18
2022-10-20T18:56:23.812Z,5.97
2022-10-20T18:58:53.681Z,7.25
2022-10-20T19:01:23.058Z,6.07
2022-10-20T19:03:52.069Z,5.10
2022-10-20T19:06:24.919Z,6.28
2022-10-20T19:08:57.644Z,6.55
2022-10-20T19:11:27.019Z,6.78
2022-10-20T19:13:53.987Z,5.85
2022-10-20T19:16:24.180Z,7.40
2022-10-20T19:18:52.834Z,5.82
2022-10-20T19:23:57.110Z,6.53
2022-10-20T19:26:26.855Z,6.35
2022-10-20T19:28:58.877Z,5.72
2022-10-20T19:31:29.840Z,5.65
2022-10-20T19:34:03.269Z,7.22
2022-10-20T19:36:30.408Z,6.18
2022-10-20T19:38:57.348Z,5.38
2022-10-20T19:41:24.718Z,7.07
2022-10-20T19:43:51.640Z,7.00
2022-10-20T19:46:21.086Z,5.63
2022-10-20T19:48:48.784Z,5.63
2022-10-20T19:51:17.008Z,9.35
2022-10-20T19:53:44.170Z,5.65
2022-10-20T19:56:11.929Z,6.53
2022-10-20T19:58:42.739Z,7.65
2022-10-20T20:01:12.501Z,7.78
2022-10-20T20:03:39.336Z,10.30
2022-10-20T20:06:09.518Z,7.63
2022-10-20T20:08:37.597Z,5.45
2022-10-20T20:11:05.496Z,7.32
2022-10-20T20:13:32.857Z,6.57
2022-10-20T20:16:08.660Z,7.90
2022-10-20T20:18:35.884Z,6.90
2022-10-20T20:21:05.154Z,8.20
2022-10-20T20:23:47.748Z,12.30
2022-10-20T20:26:21.454Z,8.93
2022-10-20T20:28:48.450Z,8.65
2022-10-20T20:31:15.156Z,10.80
2022-10-20T20:33:42.035Z,10.90
2022-10-20T20:36:09.292Z,10.73
2022-10-20T20:38:37.701Z,9.57
2022-10-20T20:41:06.961Z,10.48
2022-10-20T20:43:35.335Z,11.05
2022-10-20T20:46:06.800Z,8.65
2022-10-20T20:48:36.115Z,9.52
2022-10-20T20:51:02.949Z,9.55
2022-10-20T20:53:29.767Z,8.00
2022-10-20T20:55:58.990Z,8.82
2022-10-20T20:58:27.312Z,11.73
2022-10-20T21:01:13.619Z,8.60
2022-10-20T21:03:40.848Z,7.70
2022-10-20T21:06:10.580Z,9.77
2022-10-20T21:08:38.697Z,10.23
2022-10-20T21:11:09.645Z,10.13
2022-10-20T21:13:37.292Z,8.45
2022-10-20T21:16:09.043Z,11.15
2022-10-20T21:18:35.972Z,9.07
2022-10-20T21:21:13.892Z,9.13
2022-10-20T21:23:41.305Z,8.45
2022-10-20T21:26:09.663Z,14.55
2022-10-20T21:28:36.587Z,8.27
2022-10-20T21:31:08.622Z,10.82
2022-10-20T21:33:36.476Z,7.95
2022-10-20T21:36:08.597Z,8.48
2022-10-20T21:38:36.922Z,9.10
2022-10-20T21:41:27.433Z,9.40
2022-10-20T21:43:56.286Z,8.95
2022-10-20T21:46:22.986Z,10.70
2022-10-20T21:48:51.836Z,7.95
2022-10-20T21:51:25.621Z,9.25
2022-10-20T21:53:57.110Z,8.00
2022-10-20T21:56:24.381Z,9.20
2022-10-20T21:58:52.107Z,10.80
2022-10-20T22:01:21.737Z,9.90
2022-10-20T22:03:49.679Z,13.20
2022-10-20T22:06:19.779Z,9.65
2022-10-20T22:08:48.581Z,10.82
2022-10-20T22:11:29.902Z,9.43
2022-10-20T22:13:57.398Z,9.93
2022-10-20T22:16:27.129Z,9.25
2022-10-20T22:18:58.530Z,13.10
2022-10-20T22:21:25.528Z,13.52
2022-10-20T22:23:54.845Z,12.77
2022-10-20T22:26:22.124Z,13.27
2022-10-20T22:28:50.856Z,9.18
2022-10-20T22:31:18.256Z,9.68
2022-10-20T22:33:45.159Z,9.25
2022-10-20T22:36:11.967Z,11.73
2022-10-20T22:38:39.011Z,16.23
2022-10-20T22:41:05.761Z,10.20
2022-10-20T22:43:32.611Z,9.88
2022-10-20T22:45:59.409Z,8.75
2022-10-20T22:48:26.616Z,10.00
2022-10-20T22:50:53.617Z,13.65
2022-10-20T22:53:20.479Z,13.57
2022-10-20T22:55:47.538Z,11.23
2022-10-20T22:58:14.271Z,13.88
2022-10-20T23:00:43.622Z,13.30
2022-10-20T23:03:10.663Z,12.68
2022-10-20T23:05:37.481Z,12.18
2022-10-20T23:08:05.032Z,13.02
2022-10-20T23:10:31.985Z,12.50
2022-10-20T23:12:58.725Z,11.93
2022-10-20T23:15:25.432Z,12.63
2022-10-20T23:17:52.129Z,11.85
2022-10-20T23:20:18.904Z,13.40
2022-10-20T23:22:48.007Z,11.45
2022-10-20T23:25:14.879Z,12.50
2022-10-20T23:27:41.577Z,12.57
2022-10-20T23:30:08.714Z,13.07
2022-10-20T23:32:35.415Z,11.70
2022-10-20T23:35:02.121Z,12.30
2022-10-20T23:37:28.828Z,11.68
2022-10-20T23:39:55.592Z,14.13
2022-10-20T23:42:22.335Z,10.43
2022-10-20T23:44:49.110Z,13.65
2022-10-20T23:47:15.818Z,14.07
2022-10-20T23:49:42.565Z,17.23
2022-10-20T23:52:09.290Z,12.45
2022-10-20T23:54:35.992Z,13.55
2022-10-20T23:57:02.775Z,11.57
2022-10-20T23:59:29.494Z,12.38
